Archival Weather

Heathrow

Heathrow, United Kingdom (EGLL)

Report from: Thursday, June 23, 2022 10:20 AM BST
Current time: Tuesday, August 16, 2022 7:51 AM BST

Current weather
Weather history
Weather forecast

Temperature18.0°C (64.4°F)
Dew point14.0°C (57.2°F)
Winds 5 kts (2.6 m/s, 5.8 mph) Vrb
Winds variableWinds variable from Northeast (50°) to North-Northwest (330°)
Visibility6.2 mi. (10 km)
Clouds Sky clear
Altimeter29.83 in.Hg (1010 mB)
Relative humidity77 %
Density altitude684 ft. (209 m)
Remarks Fully automated report
No clouds detected
No significant changes expected in the next two hours
Flight conditions Visual Meteorological Conditions
Raw dataEGLL 230920Z AUTO 36005KT 330V050 9999 NCD 18/14 Q1010 NOSIG
An error has occurred. This application may no longer respond until reloaded. Reload 🗙